Time;durP1;ratioP1;P1;durP2;ratioP2;P2;SDS_P1;SDS_P2;PMS_P1;PMS_P2;Temp;Humidity;BMP_temperature;BMP_pressure;BME280_temperature;BME280_humidity;BME280_pressure;Samples;Min_cycle;Max_cycle;Signal;HPM_P1;HPM_P2
2021/11/27 00:02:12;;;;;;;8.60;4.63;;;;;;;;;;5033392;28;20037;-81
2021/11/27 00:04:37;;;;;;;6.15;3.25;;;;;;;;;;5032390;28;20029;-80
2021/11/27 00:07:03;;;;;;;4.90;4.50;;;;;;;;;;5033791;28;20432;-81
2021/11/27 00:09:28;;;;;;;3.58;3.28;;;;;;;;;;5033343;28;20056;-80
2021/11/27 00:11:54;;;;;;;4.28;3.45;;;;;;;;;;5033581;28;20124;-80
2021/11/27 00:14:20;;;;;;;3.17;2.78;;;;;;;;;;5033801;28;20026;-82
2021/11/27 00:16:46;;;;;;;4.03;3.05;;;;;;;;;;5033609;28;20128;-81
2021/11/27 00:19:12;;;;;;;5.05;3.95;;;;;;;;;;5033332;28;20120;-82
2021/11/27 00:21:40;;;;;;;4.72;3.88;;;;;;;;;;5032219;28;20036;-81
2021/11/27 00:24:06;;;;;;;4.25;3.63;;;;;;;;;;5032313;28;20395;-81
2021/11/27 00:26:31;;;;;;;4.95;3.83;;;;;;;;;;5032983;28;20048;-81
2021/11/27 00:28:57;;;;;;;4.20;3.00;;;;;;;;;;5031800;28;20124;-81
2021/11/27 00:31:26;;;;;;;6.38;3.83;;;;;;;;;;5033140;28;20064;-81
2021/11/27 00:33:53;;;;;;;4.25;3.83;;;;;;;;;;5031929;28;20132;-81
2021/11/27 00:36:20;;;;;;;4.05;3.67;;;;;;;;;;5032963;28;20029;-81
2021/11/27 00:38:46;;;;;;;4.88;3.63;;;;;;;;;;5032170;28;20065;-79
2021/11/27 00:41:13;;;;;;;6.00;3.80;;;;;;;;;;5032878;28;20042;-82
2021/11/27 00:43:39;;;;;;;5.03;3.35;;;;;;;;;;5032969;28;20030;-81
2021/11/27 00:46:05;;;;;;;8.70;3.38;;;;;;;;;;5032775;28;20068;-79
2021/11/27 00:48:32;;;;;;;4.80;3.53;;;;;;;;;;5050708;28;20493;-81
2021/11/27 00:51:08;;;;;;;5.32;3.60;;;;;;;;;;5052788;28;20597;-79
2021/11/27 00:53:34;;;;;;;;;;;;;;;;;;5052781;28;20032;-80
2021/11/27 00:56:00;;;;;;;9.90;4.15;;;;;;;;;;5052436;28;19912;-80
2021/11/27 00:58:25;;;;;;;5.93;4.30;;;;;;;;;;5052062;28;20061;-81
2021/11/27 01:01:02;;;;;;;8.55;6.35;;;;;;;;;;5051125;28;20406;-81
2021/11/27 01:03:31;;;;;;;6.28;4.20;;;;;;;;;;5052382;28;20036;-80
2021/11/27 01:05:59;;;;;;;6.97;4.97;;;;;;;;;;5052279;28;20033;-80
2021/11/27 01:08:27;;;;;;;7.22;5.57;;;;;;;;;;5052342;28;20040;-81
2021/11/27 01:11:13;;;;;;;7.20;5.65;;;;;;;;;;5051219;28;20509;-81
2021/11/27 01:13:41;;;;;;;7.72;5.63;;;;;;;;;;5032439;28;20041;-81
2021/11/27 01:16:08;;;;;;;9.05;4.75;;;;;;;;;;5031901;28;20033;-81
2021/11/27 01:18:34;;;;;;;6.95;5.38;;;;;;;;;;5050568;28;20031;-80
2021/11/27 01:21:03;;;;;;;4.57;3.35;;;;;;;;;;5052129;28;20037;-80
2021/11/27 01:23:30;;;;;;;9.48;5.45;;;;;;;;;;5052414;28;20444;-81
2021/11/27 01:25:55;;;;;;;8.38;5.85;;;;;;;;;;5052080;28;20036;-80
2021/11/27 01:28:22;;;;;;;9.93;5.93;;;;;;;;;;5052021;28;20059;-80
2021/11/27 01:30:51;;;;;;;9.80;7.10;;;;;;;;;;5052105;28;20103;-81
2021/11/27 01:33:17;;;;;;;8.43;6.32;;;;;;;;;;5051677;28;20521;-81
2021/11/27 01:35:43;;;;;;;9.60;6.68;;;;;;;;;;5050595;28;20040;-80
2021/11/27 01:38:08;;;;;;;8.73;6.05;;;;;;;;;;5050632;28;20036;-80
2021/11/27 01:40:35;;;;;;;10.52;6.72;;;;;;;;;;5051873;28;20029;-79
2021/11/27 01:43:03;;;;;;;11.30;6.25;;;;;;;;;;5034732;28;20038;-80
2021/11/27 01:45:29;;;;;;;7.82;5.25;;;;;;;;;;5031633;28;20026;-80
2021/11/27 01:47:58;;;;;;;8.27;5.40;;;;;;;;;;5031226;28;20041;-81
2021/11/27 01:50:26;;;;;;;7.07;5.25;;;;;;;;;;5031238;28;20033;-79
2021/11/27 01:52:52;;;;;;;5.28;4.72;;;;;;;;;;5030665;28;20040;-82
2021/11/27 01:55:18;;;;;;;6.03;4.63;;;;;;;;;;5031244;28;20030;-79
2021/11/27 01:57:45;;;;;;;5.60;4.55;;;;;;;;;;5031115;28;20100;-80
2021/11/27 02:00:15;;;;;;;6.03;4.68;;;;;;;;;;5031346;28;20069;-80
2021/11/27 02:02:42;;;;;;;5.55;4.50;;;;;;;;;;5031580;28;20040;-81
2021/11/27 02:05:08;;;;;;;7.18;4.93;;;;;;;;;;5031663;28;20080;-80
2021/11/27 02:07:34;;;;;;;7.20;5.75;;;;;;;;;;5030797;28;20029;-79
2021/11/27 02:09:59;;;;;;;4.78;4.18;;;;;;;;;;5030211;28;20029;-80
2021/11/27 02:12:25;;;;;;;6.07;4.90;;;;;;;;;;5031457;28;20034;-80
2021/11/27 02:14:51;;;;;;;6.68;4.82;;;;;;;;;;5031351;28;20487;-81
2021/11/27 02:17:16;;;;;;;6.32;5.00;;;;;;;;;;5031663;28;20036;-82
2021/11/27 02:19:43;;;;;;;5.03;4.53;;;;;;;;;;5031772;28;20487;-81
2021/11/27 02:22:10;;;;;;;5.95;4.93;;;;;;;;;;5031610;28;20029;-79
2021/11/27 02:24:37;;;;;;;4.50;4.00;;;;;;;;;;5031694;28;20045;-81
2021/11/27 02:27:03;;;;;;;5.07;4.57;;;;;;;;;;5031415;28;20387;-79
2021/11/27 02:29:31;;;;;;;4.18;3.75;;;;;;;;;;5031270;28;20056;-80
2021/11/27 02:31:59;;;;;;;5.72;5.22;;;;;;;;;;5034792;28;20140;-79
2021/11/27 02:34:26;;;;;;;5.70;4.50;;;;;;;;;;5035524;28;20068;-80
2021/11/27 02:37:00;;;;;;;4.88;4.47;;;;;;;;;;5035424;28;20026;-81
2021/11/27 02:39:27;;;;;;;5.82;4.63;;;;;;;;;;5035357;28;20069;-80
2021/11/27 02:41:53;;;;;;;4.80;4.32;;;;;;;;;;5035069;28;20030;-81
2021/11/27 02:44:23;;;;;;;5.47;4.97;;;;;;;;;;5033826;28;20505;-80
2021/11/27 02:46:49;;;;;;;;;;;;;;;;;;5035178;28;20037;-81
2021/11/27 02:49:15;;;;;;;4.05;3.58;;;;;;;;;;5035066;28;19920;-77
2021/11/27 02:51:41;;;;;;;5.00;4.18;;;;;;;;;;5034550;28;20057;-79
2021/11/27 02:54:07;;;;;;;5.75;4.47;;;;;;;;;;5034688;28;20047;-79
2021/11/27 02:56:33;;;;;;;4.82;4.07;;;;;;;;;;5037360;28;20135;-81
2021/11/27 02:59:10;;;;;;;5.63;4.00;;;;;;;;;;5054993;28;20040;-80
2021/11/27 03:01:36;;;;;;;7.45;4.65;;;;;;;;;;5055506;28;20352;-80
2021/11/27 03:04:02;;;;;;;5.18;4.43;;;;;;;;;;5054463;28;20040;-80
2021/11/27 03:06:28;;;;;;;4.38;3.97;;;;;;;;;;5054676;28;20364;-81
2021/11/27 03:08:54;;;;;;;6.15;4.47;;;;;;;;;;5054279;28;20044;-81
2021/11/27 03:11:21;;;;;;;7.07;4.20;;;;;;;;;;5054701;28;20078;-81
2021/11/27 03:13:46;;;;;;;5.88;4.55;;;;;;;;;;5054679;28;20040;-81
2021/11/27 03:16:12;;;;;;;4.50;3.78;;;;;;;;;;5054774;28;20401;-81
2021/11/27 03:18:37;;;;;;;5.13;3.83;;;;;;;;;;5055028;28;20041;-81
2021/11/27 03:21:03;;;;;;;5.63;4.43;;;;;;;;;;5054790;28;20037;-80
2021/11/27 03:23:30;;;;;;;7.45;4.50;;;;;;;;;;5034008;28;20048;-84
2021/11/27 03:25:56;;;;;;;4.50;4.10;;;;;;;;;;5034630;28;20395;-80
2021/11/27 03:28:22;;;;;;;4.07;3.72;;;;;;;;;;5034396;28;20037;-80
2021/11/27 03:30:48;;;;;;;5.45;4.32;;;;;;;;;;5034289;28;20030;-81
2021/11/27 03:33:14;;;;;;;5.35;4.68;;;;;;;;;;5034109;28;20029;-81
2021/11/27 03:35:40;;;;;;;6.70;4.80;;;;;;;;;;5034388;28;20033;-81
2021/11/27 03:38:06;;;;;;;4.25;3.85;;;;;;;;;;5033039;28;20446;-81
2021/11/27 03:40:32;;;;;;;6.53;5.00;;;;;;;;;;5033976;28;20120;-80
2021/11/27 03:42:58;;;;;;;9.35;4.43;;;;;;;;;;5033753;28;20040;-81
2021/11/27 03:45:26;;;;;;;7.57;3.95;;;;;;;;;;5033744;28;20031;-81
2021/11/27 03:48:01;;;;;;;6.38;4.30;;;;;;;;;;5047039;28;20380;-81
2021/11/27 03:50:38;;;;;;;4.25;3.88;;;;;;;;;;5053705;28;20056;-81
2021/11/27 03:53:04;;;;;;;5.47;3.67;;;;;;;;;;5053845;28;20033;-79
2021/11/27 03:55:30;;;;;;;3.75;3.40;;;;;;;;;;5053471;28;20029;-80
2021/11/27 03:57:56;;;;;;;4.25;3.78;;;;;;;;;;5053348;28;20063;-80
2021/11/27 04:00:21;;;;;;;5.07;4.38;;;;;;;;;;5053399;28;20124;-79
2021/11/27 04:02:47;;;;;;;4.65;3.78;;;;;;;;;;5053588;28;20033;-80
2021/11/27 04:05:13;;;;;;;5.75;3.83;;;;;;;;;;5053303;28;20029;-81
2021/11/27 04:07:38;;;;;;;6.47;3.67;;;;;;;;;;5052119;28;20032;-80
2021/11/27 04:10:04;;;;;;;5.20;4.32;;;;;;;;;;5053314;28;20029;-80
2021/11/27 04:12:30;;;;;;;4.35;2.97;;;;;;;;;;5041018;28;20083;-79
2021/11/27 04:14:55;;;;;;;3.53;3.22;;;;;;;;;;5033367;28;20037;-79
2021/11/27 04:17:21;;;;;;;4.47;3.90;;;;;;;;;;5033319;28;20119;-79
2021/11/27 04:19:46;;;;;;;4.15;3.70;;;;;;;;;;5033219;28;20045;-81
2021/11/27 04:22:12;;;;;;;4.35;3.30;;;;;;;;;;5033395;28;20471;-79
2021/11/27 04:24:39;;;;;;;6.90;3.88;;;;;;;;;;5033140;28;20045;-79
2021/11/27 04:27:05;;;;;;;4.25;3.67;;;;;;;;;;5031807;28;20069;-78
2021/11/27 04:29:31;;;;;;;6.28;4.45;;;;;;;;;;5031833;28;20038;-80
2021/11/27 04:31:57;;;;;;;6.15;3.85;;;;;;;;;;5033144;28;20048;-79
2021/11/27 04:34:22;;;;;;;4.63;3.90;;;;;;;;;;5032942;28;20099;-80
2021/11/27 04:36:48;;;;;;;7.78;4.90;;;;;;;;;;5032110;28;20036;-79
2021/11/27 04:39:13;;;;;;;4.93;3.75;;;;;;;;;;5032948;28;20556;-81
2021/11/27 04:41:39;;;;;;;5.57;4.03;;;;;;;;;;5033049;28;20490;-79
2021/11/27 04:44:04;;;;;;;5.88;4.30;;;;;;;;;;5032705;28;20038;-80
2021/11/27 04:46:30;;;;;;;4.03;3.60;;;;;;;;;;5032789;28;20033;-79
2021/11/27 04:48:55;;;;;;;3.75;3.10;;;;;;;;;;5031300;28;20033;-79
2021/11/27 04:51:21;;;;;;;10.02;4.95;;;;;;;;;;5031296;28;20395;-79
2021/11/27 04:53:47;;;;;;;5.93;4.15;;;;;;;;;;5031846;28;20411;-78
2021/11/27 04:56:12;;;;;;;4.47;3.92;;;;;;;;;;5031376;28;20037;-80
2021/11/27 04:58:38;;;;;;;4.53;3.45;;;;;;;;;;5032609;28;20572;-80
2021/11/27 05:01:03;;;;;;;5.03;4.53;;;;;;;;;;5032192;28;20437;-79
2021/11/27 05:03:29;;;;;;;16.92;4.93;;;;;;;;;;5031552;28;20029;-80
2021/11/27 05:05:55;;;;;;;22.27;4.90;;;;;;;;;;5032274;28;20083;-79
2021/11/27 05:08:20;;;;;;;4.13;3.75;;;;;;;;;;5032353;28;20045;-79
2021/11/27 05:10:46;;;;;;;5.95;4.75;;;;;;;;;;5031795;28;20463;-80
2021/11/27 05:13:12;;;;;;;3.55;3.25;;;;;;;;;;5032034;28;20037;-80
2021/11/27 05:15:37;;;;;;;5.13;3.88;;;;;;;;;;5031770;28;20030;-78
2021/11/27 05:18:03;;;;;;;7.68;6.18;;;;;;;;;;5031718;28;20462;-78
2021/11/27 05:20:29;;;;;;;6.38;3.72;;;;;;;;;;5032255;28;20120;-78
2021/11/27 05:22:55;;;;;;;8.57;4.05;;;;;;;;;;5030672;28;20037;-79
2021/11/27 05:25:20;;;;;;;4.35;3.40;;;;;;;;;;5030088;28;20037;-78
2021/11/27 05:27:46;;;;;;;5.80;3.88;;;;;;;;;;5030887;28;20037;-79
2021/11/27 05:30:12;;;;;;;10.25;4.55;;;;;;;;;;5032044;28;20502;-79
2021/11/27 05:35:08;;;;;;;5.05;4.43;;;;;;;;;;5031828;28;20515;-81
2021/11/27 05:37:34;;;;;;;6.25;3.97;;;;;;;;;;5031671;28;20041;-80
2021/11/27 05:40:02;;;;;;;5.20;4.70;;;;;;;;;;5031457;28;20395;-80
2021/11/27 05:42:28;;;;;;;8.70;4.32;;;;;;;;;;5030085;28;20111;-80
2021/11/27 05:44:54;;;;;;;4.88;3.65;;;;;;;;;;5030357;28;20071;-79
2021/11/27 05:47:21;;;;;;;5.90;3.55;;;;;;;;;;5032331;28;20041;-80
2021/11/27 05:49:47;;;;;;;8.15;5.13;;;;;;;;;;5030376;28;20262;-80
2021/11/27 05:52:13;;;;;;;4.70;3.65;;;;;;;;;;5040388;28;20083;-80
2021/11/27 05:54:39;;;;;;;5.05;4.65;;;;;;;;;;5051277;28;20434;-79
2021/11/27 05:57:05;;;;;;;8.00;3.88;;;;;;;;;;5050543;28;20051;-79
2021/11/27 05:59:31;;;;;;;5.07;4.22;;;;;;;;;;5050199;28;20037;-79
2021/11/27 06:01:57;;;;;;;6.18;4.20;;;;;;;;;;5051381;28;20119;-79
2021/11/27 06:04:24;;;;;;;7.38;4.13;;;;;;;;;;5052991;28;20068;-79
2021/11/27 06:06:50;;;;;;;12.02;4.05;;;;;;;;;;5055606;28;20526;-78
2021/11/27 06:09:15;;;;;;;12.07;4.55;;;;;;;;;;5055270;28;20116;-79
2021/11/27 06:11:41;;;;;;;8.65;3.67;;;;;;;;;;5053961;28;20135;-80
2021/11/27 06:14:07;;;;;;;3.42;2.95;;;;;;;;;;5055556;28;20098;-80
2021/11/27 06:16:32;;;;;;;8.43;3.70;;;;;;;;;;5054403;28;20047;-80
2021/11/27 06:18:58;;;;;;;6.38;5.78;;;;;;;;;;5055063;28;20500;-79
2021/11/27 06:21:23;;;;;;;4.68;4.35;;;;;;;;;;5055242;28;20394;-78
2021/11/27 06:23:50;;;;;;;11.63;3.90;;;;;;;;;;5054815;28;20082;-79
2021/11/27 06:26:17;;;;;;;4.53;3.63;;;;;;;;;;5055188;28;20433;-79
2021/11/27 06:28:42;;;;;;;6.13;5.20;;;;;;;;;;5055110;28;20397;-79
2021/11/27 06:31:08;;;;;;;4.72;4.00;;;;;;;;;;5055188;28;20039;-82
2021/11/27 06:33:33;;;;;;;4.75;3.90;;;;;;;;;;5054660;28;20040;-80
2021/11/27 06:35:59;;;;;;;5.18;4.05;;;;;;;;;;5054849;28;20036;-80
2021/11/27 06:38:24;;;;;;;7.43;3.78;;;;;;;;;;5054937;28;20549;-79
2021/11/27 06:40:50;;;;;;;5.15;3.33;;;;;;;;;;5054939;28;20037;-80
2021/11/27 06:43:15;;;;;;;5.15;4.22;;;;;;;;;;5035977;28;20041;-80
2021/11/27 06:45:41;;;;;;;7.78;3.92;;;;;;;;;;5034690;28;20418;-79
2021/11/27 06:48:06;;;;;;;5.63;4.05;;;;;;;;;;5035272;28;20123;-80
2021/11/27 06:50:32;;;;;;;5.53;4.25;;;;;;;;;;5034847;28;20083;-80
2021/11/27 06:52:57;;;;;;;7.15;4.88;;;;;;;;;;5034620;28;20508;-80
2021/11/27 06:55:23;;;;;;;6.82;4.80;;;;;;;;;;5034463;28;20044;-80
2021/11/27 06:57:48;;;;;;;18.02;4.95;;;;;;;;;;5032718;28;20416;-80
2021/11/27 07:00:15;;;;;;;5.45;4.35;;;;;;;;;;5033301;28;20041;-80
2021/11/27 07:02:40;;;;;;;6.40;4.13;;;;;;;;;;5034576;28;20571;-80
2021/11/27 07:05:06;;;;;;;6.07;4.72;;;;;;;;;;5034672;28;20033;-81
2021/11/27 07:07:32;;;;;;;5.72;4.38;;;;;;;;;;5033374;28;20037;-79
2021/11/27 07:09:57;;;;;;;12.10;4.97;;;;;;;;;;5034032;28;20048;-79
2021/11/27 07:12:23;;;;;;;7.22;4.93;;;;;;;;;;5034401;28;20033;-79
2021/11/27 07:14:48;;;;;;;12.32;4.28;;;;;;;;;;5034291;28;20040;-79
2021/11/27 07:17:14;;;;;;;8.05;5.45;;;;;;;;;;5033344;28;20095;-80
2021/11/27 07:19:40;;;;;;;16.30;4.93;;;;;;;;;;5034273;28;20041;-80
2021/11/27 07:22:05;;;;;;;12.55;5.28;;;;;;;;;;5034396;28;20033;-80
2021/11/27 07:24:31;;;;;;;6.53;4.55;;;;;;;;;;5034091;28;20115;-81
2021/11/27 07:26:59;;;;;;;7.88;5.20;;;;;;;;;;5034064;28;20152;-79
2021/11/27 07:29:25;;;;;;;6.00;4.50;;;;;;;;;;5034293;28;20034;-80
2021/11/27 07:31:51;;;;;;;5.82;4.63;;;;;;;;;;5032546;28;20487;-80
2021/11/27 07:34:16;;;;;;;8.55;5.65;;;;;;;;;;5034467;28;20037;-81
2021/11/27 07:36:42;;;;;;;4.88;4.38;;;;;;;;;;5033998;28;20034;-80
2021/11/27 07:39:09;;;;;;;9.60;5.53;;;;;;;;;;5034071;28;20041;-80
2021/11/27 07:41:34;;;;;;;11.73;4.80;;;;;;;;;;5033889;28;20032;-79
2021/11/27 07:44:00;;;;;;;5.55;4.60;;;;;;;;;;5033746;28;20037;-80
2021/11/27 07:46:26;;;;;;;7.68;5.35;;;;;;;;;;5033356;28;20048;-80
2021/11/27 07:48:52;;;;;;;6.70;4.75;;;;;;;;;;5033295;28;20037;-81
2021/11/27 07:51:18;;;;;;;10.30;4.97;;;;;;;;;;5033185;28;20036;-81
2021/11/27 07:53:44;;;;;;;5.65;3.95;;;;;;;;;;5032194;28;20075;-82
2021/11/27 07:56:10;;;;;;;7.57;5.97;;;;;;;;;;5031742;28;20029;-82
2021/11/27 07:58:35;;;;;;;7.32;6.63;;;;;;;;;;5053124;28;20459;-81
2021/11/27 08:01:01;;;;;;;11.95;5.18;;;;;;;;;;5053363;28;20068;-83
2021/11/27 08:03:27;;;;;;;9.23;6.65;;;;;;;;;;5053607;28;20398;-83
2021/11/27 08:05:53;;;;;;;9.30;5.45;;;;;;;;;;5054011;28;20040;-84
2021/11/27 08:08:18;;;;;;;11.38;5.85;;;;;;;;;;5051819;28;20033;-82
2021/11/27 08:10:44;;;;;;;5.80;4.97;;;;;;;;;;5053307;28;20029;-83
2021/11/27 08:13:09;;;;;;;10.80;5.30;;;;;;;;;;5053299;28;20041;-84
2021/11/27 08:15:35;;;;;;;6.22;4.80;;;;;;;;;;5053377;28;20033;-82
2021/11/27 08:18:01;;;;;;;11.82;4.93;;;;;;;;;;5053146;28;20146;-83
2021/11/27 08:20:27;;;;;;;8.52;5.45;;;;;;;;;;5051861;28;20033;-82
2021/11/27 08:22:53;;;;;;;7.93;4.82;;;;;;;;;;5051927;28;20041;-82
2021/11/27 08:25:18;;;;;;;7.80;4.75;;;;;;;;;;5053054;28;20123;-83
2021/11/27 08:27:44;;;;;;;8.35;5.57;;;;;;;;;;5051798;28;20119;-82
2021/11/27 08:30:10;;;;;;;8.13;5.93;;;;;;;;;;5053041;28;20036;-82
2021/11/27 08:32:36;;;;;;;10.80;5.22;;;;;;;;;;5053033;28;20037;-82
2021/11/27 08:35:03;;;;;;;6.82;4.47;;;;;;;;;;5052769;28;20036;-84
2021/11/27 08:37:29;;;;;;;7.95;4.85;;;;;;;;;;5052779;28;20048;-82
2021/11/27 08:39:56;;;;;;;12.18;5.35;;;;;;;;;;5051215;28;20139;-81
2021/11/27 08:42:21;;;;;;;7.35;5.55;;;;;;;;;;5052649;28;20091;-82
2021/11/27 08:44:50;;;;;;;13.07;5.70;;;;;;;;;;5052528;28;20048;-84
2021/11/27 08:47:17;;;;;;;10.55;6.43;;;;;;;;;;5051185;28;20510;-82
2021/11/27 08:49:43;;;;;;;14.77;6.78;;;;;;;;;;5052153;28;20409;-83
2021/11/27 08:52:09;;;;;;;10.32;6.13;;;;;;;;;;5052184;28;20494;-83
2021/11/27 08:54:34;;;;;;;12.27;7.28;;;;;;;;;;5050639;28;20135;-82
2021/11/27 08:57:00;;;;;;;17.98;7.57;;;;;;;;;;5052173;28;20088;-82
2021/11/27 08:59:26;;;;;;;12.07;6.07;;;;;;;;;;5052282;28;20033;-82
2021/11/27 09:01:53;;;;;;;11.07;7.05;;;;;;;;;;5052729;28;20040;-82
2021/11/27 09:04:19;;;;;;;11.57;6.88;;;;;;;;;;5051743;28;20033;-83
2021/11/27 09:06:45;;;;;;;11.27;7.55;;;;;;;;;;5051718;28;20033;-84
2021/11/27 09:09:10;;;;;;;21.02;7.07;;;;;;;;;;5051709;28;20033;-83
2021/11/27 09:11:36;;;;;;;10.77;6.80;;;;;;;;;;5047111;28;20128;-83
2021/11/27 09:14:04;;;;;;;10.20;7.03;;;;;;;;;;5031314;28;20557;-82
2021/11/27 09:16:30;;;;;;;11.93;6.25;;;;;;;;;;5031907;28;20079;-83
2021/11/27 09:18:55;;;;;;;14.02;7.22;;;;;;;;;;5031290;28;20107;-84
2021/11/27 09:21:21;;;;;;;9.20;6.28;;;;;;;;;;5032165;28;20033;-83
2021/11/27 09:23:46;;;;;;;11.50;6.43;;;;;;;;;;5031714;28;20499;-85
2021/11/27 09:26:12;;;;;;;13.48;7.95;;;;;;;;;;5031979;28;20499;-83
2021/11/27 09:28:38;;;;;;;11.18;8.55;;;;;;;;;;5032104;28;20398;-83
2021/11/27 09:31:04;;;;;;;12.32;7.28;;;;;;;;;;5031966;28;20039;-85
2021/11/27 09:33:29;;;;;;;10.68;5.68;;;;;;;;;;5032180;28;20043;-84
2021/11/27 09:36:05;;;;;;;10.50;6.97;;;;;;;;;;5030603;28;20372;-84
2021/11/27 09:38:32;;;;;;;8.32;6.85;;;;;;;;;;5030298;28;20038;-85
2021/11/27 09:41:12;;;;;;;13.85;9.90;;;;;;;;;;5031741;28;20402;-84
2021/11/27 09:43:42;;;;;;;10.80;6.90;;;;;;;;;;5030315;28;20054;-85
2021/11/27 09:46:10;;;;;;;8.57;6.88;;;;;;;;;;5030417;28;20034;-85
2021/11/27 09:48:40;;;;;;;8.10;6.18;;;;;;;;;;5039138;28;20051;-82
2021/11/27 09:51:30;;;;;;;8.23;5.68;;;;;;;;;;5051693;28;20083;-84
2021/11/27 09:53:58;;;;;;;9.05;5.78;;;;;;;;;;5051323;28;20112;-83
2021/11/27 09:56:24;;;;;;;8.23;4.70;;;;;;;;;;5051527;28;20036;-84
2021/11/27 09:58:50;;;;;;;9.52;5.30;;;;;;;;;;5050265;28;20490;-84
2021/11/27 10:01:20;;;;;;;6.07;4.72;;;;;;;;;;5049180;28;20044;-83
2021/11/27 10:03:59;;;;;;;20.00;4.72;;;;;;;;;;5028593;28;20041;-84
2021/11/27 10:06:26;;;;;;;5.63;4.53;;;;;;;;;;5049447;28;20032;-83
2021/11/27 10:08:52;;;;;;;7.93;4.53;;;;;;;;;;5051592;28;20083;-84
2021/11/27 10:11:18;;;;;;;6.40;4.25;;;;;;;;;;5051584;28;20028;-83
2021/11/27 10:13:43;;;;;;;4.18;3.78;;;;;;;;;;5051803;28;20041;-85
2021/11/27 10:16:09;;;;;;;11.10;3.83;;;;;;;;;;5051360;28;20375;-85
2021/11/27 10:18:35;;;;;;;4.07;3.22;;;;;;;;;;5051350;28;20029;-82
2021/11/27 10:21:17;;;;;;;11.25;4.80;;;;;;;;;;5051020;28;20044;-83
2021/11/27 10:23:44;;;;;;;4.60;3.35;;;;;;;;;;5048299;28;20075;-82
2021/11/27 10:26:30;;;;;;;12.43;4.85;;;;;;;;;;5044833;28;20082;-84
2021/11/27 10:29:12;;;;;;;4.93;3.85;;;;;;;;;;5050721;28;20060;-83
2021/11/27 10:31:38;;;;;;;5.05;4.40;;;;;;;;;;5049549;28;20041;-82
2021/11/27 10:34:03;;;;;;;8.65;5.60;;;;;;;;;;5050813;28;20093;-83
2021/11/27 10:36:32;;;;;;;8.70;4.20;;;;;;;;;;5052212;28;20037;-81
2021/11/27 10:39:07;;;;;;;5.15;4.55;;;;;;;;;;5052856;28;20186;-84
2021/11/27 10:41:37;;;;;;;11.05;5.38;;;;;;;;;;5052030;28;20124;-82
2021/11/27 10:44:05;;;;;;;5.82;4.95;;;;;;;;;;5049360;28;20544;-82
2021/11/27 10:46:34;;;;;;;18.60;4.97;;;;;;;;;;5047800;28;20478;-82
2021/11/27 10:49:02;;;;;;;8.60;3.97;;;;;;;;;;5050344;28;20044;-82
2021/11/27 10:51:28;;;;;;;7.85;3.58;;;;;;;;;;5047806;28;20037;-83
2021/11/27 10:53:57;;;;;;;7.05;3.67;;;;;;;;;;5033033;28;20038;-81
2021/11/27 10:56:42;;;;;;;10.77;4.63;;;;;;;;;;5034591;28;20043;-83
2021/11/27 10:59:08;;;;;;;5.47;3.58;;;;;;;;;;5034264;28;20123;-82
2021/11/27 11:01:58;;;;;;;13.18;4.72;;;;;;;;;;5033916;28;20076;-82
2021/11/27 11:04:23;;;;;;;7.93;4.35;;;;;;;;;;5033976;28;20037;-82
2021/11/27 11:06:49;;;;;;;13.98;4.90;;;;;;;;;;5034070;28;20403;-83
2021/11/27 11:09:15;;;;;;;12.95;4.53;;;;;;;;;;5030378;28;20041;-83
2021/11/27 11:11:41;;;;;;;4.75;3.03;;;;;;;;;;5032742;28;20116;-83
2021/11/27 11:14:25;;;;;;;7.88;3.65;;;;;;;;;;5033797;28;20620;-83
2021/11/27 11:16:59;;;;;;;8.98;6.90;;;;;;;;;;5033744;28;20469;-82
2021/11/27 11:19:25;;;;;;;9.30;4.05;;;;;;;;;;5041906;28;20048;-84
2021/11/27 11:22:10;;;;;;;16.70;4.60;;;;;;;;;;5053705;28;20037;-83
2021/11/27 11:24:43;;;;;;;9.88;4.22;;;;;;;;;;5053405;28;20044;-82
2021/11/27 11:27:09;;;;;;;6.55;4.45;;;;;;;;;;5052135;28;20025;-85
2021/11/27 11:29:45;;;;;;;5.90;4.63;;;;;;;;;;5050266;28;20040;-83
2021/11/27 11:32:22;;;;;;;6.78;4.78;;;;;;;;;;5052416;28;20040;-83
2021/11/27 11:34:50;;;;;;;12.68;5.55;;;;;;;;;;5053669;28;20033;-83
2021/11/27 11:37:16;;;;;;;12.30;5.45;;;;;;;;;;5053141;28;20052;-83
2021/11/27 11:39:42;;;;;;;7.82;4.57;;;;;;;;;;5053540;28;20043;-84
2021/11/27 11:42:08;;;;;;;10.38;4.93;;;;;;;;;;5052020;28;20037;-82
2021/11/27 11:44:35;;;;;;;9.43;4.88;;;;;;;;;;5053221;28;20048;-82
2021/11/27 11:47:01;;;;;;;11.73;4.45;;;;;;;;;;5045801;28;20056;-83
2021/11/27 11:49:27;;;;;;;8.57;5.10;;;;;;;;;;5033495;28;20499;-82
2021/11/27 11:52:28;;;;;;;4.47;3.92;;;;;;;;;;5029125;28;20025;-84
2021/11/27 11:55:09;;;;;;;13.70;4.90;;;;;;;;;;5033593;28;20397;-85
2021/11/27 11:57:56;;;;;;;7.18;3.80;;;;;;;;;;5033638;28;20036;-83
2021/11/27 12:00:24;;;;;;;7.28;4.03;;;;;;;;;;5031915;28;20083;-83
2021/11/27 12:02:50;;;;;;;8.27;4.90;;;;;;;;;;5032825;28;20503;-83
2021/11/27 12:05:19;;;;;;;14.38;5.03;;;;;;;;;;5032773;28;20172;-84
2021/11/27 12:07:52;;;;;;;3.92;3.30;;;;;;;;;;5032645;28;20030;-83
2021/11/27 12:10:21;;;;;;;6.25;3.28;;;;;;;;;;5032772;28;20048;-83
2021/11/27 12:13:07;;;;;;;15.95;6.20;;;;;;;;;;5033706;28;20401;-83
2021/11/27 12:15:42;;;;;;;6.65;3.22;;;;;;;;;;5051068;28;20041;-82
2021/11/27 12:18:20;;;;;;;6.45;3.85;;;;;;;;;;5052703;28;20052;-82
2021/11/27 12:20:53;;;;;;;9.25;3.63;;;;;;;;;;5052644;28;20047;-81
2021/11/27 12:23:39;;;;;;;6.90;3.88;;;;;;;;;;5050721;28;20029;-83
2021/11/27 12:28:35;;;;;;;4.10;3.70;;;;;;;;;;5052823;28;20033;-83
2021/11/27 12:31:07;;;;;;;6.82;3.63;;;;;;;;;;5051126;28;20036;-82
2021/11/27 12:33:48;;;;;;;11.35;4.38;;;;;;;;;;5052567;28;20501;-82
2021/11/27 12:36:30;;;;;;;7.32;6.82;;;;;;;;;;5050703;28;20414;-82
2021/11/27 12:39:27;;;;;;;8.90;3.58;;;;;;;;;;5036464;28;20040;-84
2021/11/27 12:42:04;;;;;;;4.07;3.78;;;;;;;;;;5042454;28;20033;-83
2021/11/27 12:44:33;;;;;;;16.63;3.40;;;;;;;;;;5051854;28;20036;-84
2021/11/27 12:47:27;;;;;;;7.15;3.35;;;;;;;;;;5052518;28;20043;-84
2021/11/27 12:49:55;;;;;;;3.53;3.22;;;;;;;;;;5051045;28;20080;-83
2021/11/27 12:52:23;;;;;;;6.22;3.45;;;;;;;;;;5051727;28;20036;-83
2021/11/27 12:55:17;;;;;;;4.65;3.42;;;;;;;;;;5051058;28;20029;-84
2021/11/27 12:57:44;;;;;;;3.95;3.55;;;;;;;;;;5048813;28;20033;-84
2021/11/27 13:00:18;;;;;;;5.18;4.70;;;;;;;;;;5051445;28;20465;-84
2021/11/27 13:03:01;;;;;;;3.45;3.15;;;;;;;;;;5050479;28;20056;-83
2021/11/27 13:05:34;;;;;;;5.95;4.05;;;;;;;;;;5052713;28;20127;-83
2021/11/27 13:08:00;;;;;;;6.45;3.70;;;;;;;;;;5051364;28;20040;-84
2021/11/27 13:10:33;;;;;;;5.05;3.38;;;;;;;;;;5034487;28;20040;-83
2021/11/27 13:13:10;;;;;;;4.00;3.58;;;;;;;;;;5031744;28;20045;-83
2021/11/27 13:15:36;;;;;;;4.63;3.65;;;;;;;;;;5031493;28;20025;-82
2021/11/27 13:18:19;;;;;;;6.68;4.22;;;;;;;;;;5030789;28;20037;-83
2021/11/27 13:20:52;;;;;;;15.75;6.10;;;;;;;;;;5031626;28;20406;-85
2021/11/27 13:23:27;;;;;;;5.18;3.15;;;;;;;;;;5031764;28;20041;-83
2021/11/27 13:25:55;;;;;;;4.43;3.38;;;;;;;;;;5031820;28;20037;-83
2021/11/27 13:28:30;;;;;;;6.35;3.60;;;;;;;;;;5031264;28;20025;-82
2021/11/27 13:30:58;;;;;;;4.15;3.20;;;;;;;;;;5031823;28;20136;-84
2021/11/27 13:33:46;;;;;;;7.43;3.15;;;;;;;;;;5031043;28;20067;-83
2021/11/27 13:36:24;;;;;;;5.40;2.88;;;;;;;;;;5030839;28;20060;-82
2021/11/27 13:38:51;;;;;;;6.30;3.08;;;;;;;;;;5030422;28;20037;-83
2021/11/27 13:41:17;;;;;;;4.55;3.22;;;;;;;;;;5034596;28;20120;-83
2021/11/27 13:43:47;;;;;;;4.32;3.33;;;;;;;;;;5047606;28;20577;-83
2021/11/27 13:46:12;;;;;;;4.70;3.22;;;;;;;;;;5051014;28;20033;-81
2021/11/27 13:48:38;;;;;;;8.52;3.20;;;;;;;;;;5051045;28;20082;-83
2021/11/27 13:51:04;;;;;;;6.38;3.60;;;;;;;;;;5050208;28;20037;-83
2021/11/27 13:53:30;;;;;;;6.22;3.60;;;;;;;;;;5050811;28;20182;-82
2021/11/27 13:55:58;;;;;;;5.45;3.22;;;;;;;;;;5051029;28;20041;-82
2021/11/27 13:58:26;;;;;;;5.82;4.10;;;;;;;;;;5049352;28;20029;-83
2021/11/27 14:00:57;;;;;;;4.93;3.17;;;;;;;;;;5050833;28;20124;-83
2021/11/27 14:03:30;;;;;;;3.85;3.50;;;;;;;;;;5050744;28;20052;-85
2021/11/27 14:05:56;;;;;;;13.75;5.80;;;;;;;;;;5050056;28;20053;-82
2021/11/27 14:08:24;;;;;;;3.45;2.95;;;;;;;;;;5050978;28;20033;-83
2021/11/27 14:11:03;;;;;;;3.55;3.08;;;;;;;;;;5050917;28;20557;-83
2021/11/27 14:13:33;;;;;;;3.92;3.20;;;;;;;;;;5050314;28;20033;-83
2021/11/27 14:15:59;;;;;;;3.15;2.45;;;;;;;;;;5051253;28;20037;-82
2021/11/27 14:18:24;;;;;;;13.48;3.35;;;;;;;;;;5050723;28;20037;-83
2021/11/27 14:21:11;;;;;;;3.10;2.78;;;;;;;;;;5050668;28;20029;-84
2021/11/27 14:23:45;;;;;;;5.72;3.85;;;;;;;;;;5051085;28;20033;-83
2021/11/27 14:26:18;;;;;;;4.28;2.83;;;;;;;;;;5052109;28;20029;-83
2021/11/27 14:28:51;;;;;;;4.78;3.20;;;;;;;;;;5054611;28;20106;-83
2021/11/27 14:31:23;;;;;;;4.47;3.10;;;;;;;;;;5055064;28;20567;-84
2021/11/27 14:33:57;;;;;;;8.10;2.70;;;;;;;;;;5054660;28;20037;-83
2021/11/27 14:36:24;;;;;;;4.97;2.67;;;;;;;;;;5054636;28;20184;-82
2021/11/27 14:38:55;;;;;;;5.32;3.92;;;;;;;;;;5054722;28;20072;-83
2021/11/27 14:41:27;;;;;;;3.28;2.80;;;;;;;;;;5054515;28;20375;-83
2021/11/27 14:44:12;;;;;;;5.63;2.95;;;;;;;;;;5054318;28;20033;-83
2021/11/27 14:46:48;;;;;;;8.80;4.55;;;;;;;;;;5053279;28;20449;-83
2021/11/27 14:49:32;;;;;;;4.82;3.20;;;;;;;;;;5053516;28;20045;-82
2021/11/27 14:52:12;;;;;;;3.35;3.05;;;;;;;;;;5054966;28;20037;-83
2021/11/27 14:54:44;;;;;;;2.90;2.72;;;;;;;;;;5054855;28;20201;-82